Time;durP1;ratioP1;P1;durP2;ratioP2;P2;SDS_P1;SDS_P2;PMS_P1;PMS_P2;Temp;Humidity;BMP_temperature;BMP_pressure;BME280_temperature;BME280_humidity;BME280_pressure;Samples;Min_cycle;Max_cycle;Signal;HPM_P1;HPM_P2
2023/01/20 00:00:55;;;;;;;9.10;7.05;;;;;;;2.35;70.60;98897.44;4979963;28;20193;-90
2023/01/20 00:03:25;;;;;;;9.20;6.97;;;;;;;2.34;70.46;98892.28;4978861;28;20202;-91
2023/01/20 00:05:53;;;;;;;8.52;6.53;;;;;;;2.34;70.71;98900.91;4980644;28;20217;-91
2023/01/20 00:08:19;;;;;;;9.10;6.23;;;;;;;2.34;70.65;98897.47;4964080;28;20196;-90
2023/01/20 00:10:47;;;;;;;10.98;7.90;;;;;;;2.33;70.59;98904.41;4981187;28;20198;-90
2023/01/20 00:13:21;;;;;;;8.10;7.10;;;;;;;2.31;70.55;98911.41;4979286;28;20702;-90
2023/01/20 00:15:47;;;;;;;11.70;7.30;;;;;;;2.30;70.63;98908.88;4979462;28;20192;-89
2023/01/20 00:18:32;;;;;;;8.57;7.47;;;;;;;2.30;70.86;98917.50;4977047;28;20224;-88
2023/01/20 00:21:05;;;;;;;9.13;6.90;;;;;;;2.32;70.50;98915.69;4980050;28;20218;-90
2023/01/20 00:23:40;;;;;;;7.63;6.93;;;;;;;2.30;70.38;98920.09;4961499;28;20196;-90
2023/01/20 00:26:08;;;;;;;9.93;6.35;;;;;;;2.31;70.72;98918.34;4963067;28;20698;-91
2023/01/20 00:28:34;;;;;;;8.38;7.22;;;;;;;2.31;70.79;98924.34;4977710;28;20241;-92
2023/01/20 00:31:18;;;;;;;7.05;6.10;;;;;;;2.32;70.74;98926.06;4980824;28;20192;-89
2023/01/20 00:33:48;;;;;;;8.48;6.22;;;;;;;2.33;70.70;98938.09;4961611;28;20209;-90
2023/01/20 00:36:16;;;;;;;6.97;6.20;;;;;;;2.27;70.94;98935.78;4980725;28;20182;-90
2023/01/20 00:38:42;;;;;;;8.27;5.93;;;;;;;2.18;71.07;98933.53;4979466;28;20335;-90
2023/01/20 00:41:19;;;;;;;8.27;6.45;;;;;;;2.11;70.88;98945.06;4962827;28;20205;-90
2023/01/20 00:43:50;;;;;;;7.32;5.50;;;;;;;2.05;71.18;98947.88;4978581;28;20203;-89
2023/01/20 00:46:23;;;;;;;8.10;6.28;;;;;;;2.05;71.34;98948.72;4980756;28;20216;-89
2023/01/20 00:48:59;;;;;;;9.07;5.93;;;;;;;2.07;71.63;98948.66;4979611;28;20187;-90
2023/01/20 00:51:32;;;;;;;7.13;5.67;;;;;;;2.08;71.41;98950.34;4980240;28;20216;-91
2023/01/20 00:54:00;;;;;;;8.30;5.88;;;;;;;2.10;71.39;98949.38;4978486;28;20190;-89
2023/01/20 00:56:27;;;;;;;9.20;5.93;;;;;;;2.10;71.46;98958.91;4980222;28;20194;-89
2023/01/20 00:58:55;;;;;;;8.43;5.70;;;;;;;2.05;71.68;98955.66;4980324;28;20236;-89
2023/01/20 01:01:27;;;;;;;9.70;5.40;;;;;;;2.03;71.80;98957.47;4977194;28;20226;-89
2023/01/20 01:03:58;;;;;;;5.57;4.95;;;;;;;1.96;71.70;98962.88;4962558;28;20733;-91
2023/01/20 01:06:33;;;;;;;6.97;5.43;;;;;;;1.92;71.68;98970.84;4979704;28;20309;-89
2023/01/20 01:09:12;;;;;;;;;;;;;;;;;;;;;
2023/01/20 01:11:45;;;;;;;7.65;5.63;;;;;;;1.84;72.13;98975.47;4979821;28;20180;-89
2023/01/20 01:14:11;;;;;;;8.37;6.10;;;;;;;1.79;72.04;98980.81;4977303;28;20202;-90
2023/01/20 01:16:44;;;;;;;7.50;6.80;;;;;;;1.81;72.18;98988.50;4974434;28;20277;-91
2023/01/20 01:19:20;;;;;;;7.40;5.50;;;;;;;1.79;72.25;98980.81;4977853;28;20232;-90
2023/01/20 01:21:53;;;;;;;7.25;5.88;;;;;;;1.79;72.08;98995.53;4977645;28;20719;-89
2023/01/20 01:24:28;;;;;;;9.95;6.72;;;;;;;1.78;72.45;98992.06;4976357;28;20207;-91
2023/01/20 01:27:06;;;;;;;;;;;;;;;;;;;;;
2023/01/20 01:29:39;;;;;;;5.93;5.43;;;;;;;1.87;72.08;98999.50;4974284;28;20658;-89
2023/01/20 01:32:13;;;;;;;8.02;7.30;;;;;;;1.90;72.08;98998.53;4969949;28;20202;-90
2023/01/20 01:34:41;;;;;;;7.43;6.72;;;;;;;1.93;72.20;99004.44;4979798;28;20193;-89
2023/01/20 01:37:17;;;;;;;7.60;5.75;;;;;;;1.96;72.15;99013.84;4979616;28;21072;-91
2023/01/20 01:39:45;;;;;;;10.50;7.27;;;;;;;1.98;71.98;99012.88;4944449;28;20351;-90
2023/01/20 01:42:38;;;;;;;7.10;5.50;;;;;;;2.01;72.04;99017.09;4957224;28;20236;-89
2023/01/20 01:45:12;;;;;;;8.10;5.38;;;;;;;2.05;71.96;99023.00;4956910;28;20382;-90
2023/01/20 01:47:41;;;;;;;8.05;6.30;;;;;;;2.07;72.11;99021.19;4957801;28;20421;-91
2023/01/20 01:50:10;;;;;;;7.65;6.05;;;;;;;2.11;71.69;99022.78;4956204;28;21013;-90
2023/01/20 01:52:37;;;;;;;9.50;6.78;;;;;;;2.10;71.78;99018.47;4958803;28;20245;-89
2023/01/20 01:55:06;;;;;;;6.82;5.75;;;;;;;2.07;72.04;99021.19;4958540;28;20269;-90
2023/01/20 01:57:35;;;;;;;5.47;4.55;;;;;;;2.06;72.17;99024.72;4966346;28;20189;-89
2023/01/20 02:00:03;;;;;;;7.78;6.03;;;;;;;2.05;72.07;99023.84;4972793;28;20257;-90
2023/01/20 02:02:40;;;;;;;7.28;5.65;;;;;;;2.03;72.20;99028.25;4960661;28;20192;-89
2023/01/20 02:05:11;;;;;;;7.15;5.88;;;;;;;2.01;72.34;99032.63;4955400;28;20200;-91
2023/01/20 02:07:43;;;;;;;5.63;5.10;;;;;;;1.99;72.18;99032.69;4955936;28;20211;-89
2023/01/20 02:10:20;;;;;;;7.10;5.40;;;;;;;1.98;72.44;99030.16;4936217;28;20307;-91
2023/01/20 02:12:58;;;;;;;;;;;;;;;;;;;;;
2023/01/20 02:15:39;;;;;;;9.27;5.85;;;;;;;1.94;72.39;99034.59;4940311;28;20638;-90
2023/01/20 02:18:37;;;;;;;6.10;5.50;;;;;;;1.94;72.47;99037.19;4945796;28;20188;-91
2023/01/20 02:21:34;;;;;;;7.68;5.93;;;;;;;1.96;72.48;99032.81;4969725;28;20215;-89
2023/01/20 02:24:17;;;;;;;8.95;5.30;;;;;;;1.95;72.17;99036.31;4952460;28;20198;-90
2023/01/20 02:27:00;;;;;;;8.73;5.47;;;;;;;1.95;72.52;99036.31;4957290;28;20630;-90
2023/01/20 02:29:57;;;;;;;5.95;5.18;;;;;;;1.95;72.47;99038.06;4965795;28;20208;-89
2023/01/20 02:32:55;;;;;;;;;;;;;;;;;;;;;
2023/01/20 02:35:34;;;;;;;7.75;6.55;;;;;;;2.02;72.66;99051.59;4954940;28;20493;-89
2023/01/20 02:38:27;;;;;;;8.27;5.90;;;;;;;1.98;72.84;99048.31;4958346;28;20193;-90
2023/01/20 02:41:01;;;;;;;7.45;4.78;;;;;;;1.95;72.69;99049.25;4943115;28;20199;-91
2023/01/20 02:43:51;;;;;;;7.00;4.03;;;;;;;1.97;72.68;99047.47;4959824;28;20204;-89
2023/01/20 02:46:22;;;;;;;3.95;3.55;;;;;;;1.99;72.40;99048.22;4941444;28;20249;-88
2023/01/20 02:49:17;;;;;;;4.97;4.43;;;;;;;2.01;72.20;99060.28;4959237;28;20210;-90
2023/01/20 02:52:02;;;;;;;4.93;3.50;;;;;;;2.02;72.21;99060.22;4977019;28;20211;-90
2023/01/20 02:54:38;;;;;;;7.85;4.60;;;;;;;2.03;72.10;99058.50;4959449;28;20185;-89
2023/01/20 02:57:11;;;;;;;6.40;5.63;;;;;;;1.99;72.16;99062.94;4959898;28;20306;-90
2023/01/20 02:59:52;;;;;;;7.30;5.50;;;;;;;1.94;72.15;99064.84;4967323;28;20207;-88
2023/01/20 03:02:28;;;;;;;4.80;4.40;;;;;;;1.89;72.31;99062.44;4959343;28;20195;-89
2023/01/20 03:05:06;;;;;;;5.65;5.15;;;;;;;1.90;72.36;99078.81;4963168;28;20199;-89
2023/01/20 03:07:37;;;;;;;7.07;4.82;;;;;;;1.92;72.27;99072.69;4948142;28;20205;-90
2023/01/20 03:10:15;;;;;;;6.57;5.18;;;;;;;1.94;72.14;99077.78;4965106;28;20206;-88
2023/01/20 03:13:19;;;;;;;;;;;;;;;;;;;;;
2023/01/20 03:16:11;;;;;;;;;;;;;;;;;;;;;
2023/01/20 03:18:50;;;;;;;;;;;;;;;;;;;;;
2023/01/20 03:21:18;;;;;;;5.43;4.70;;;;;;;1.76;72.73;99106.06;4948008;28;20222;-89
2023/01/20 03:23:51;;;;;;;8.00;5.22;;;;;;;1.71;72.57;99101.94;4962521;28;20287;-89
2023/01/20 03:26:21;;;;;;;4.30;3.97;;;;;;;1.69;72.66;99098.56;4963117;28;20212;-90
2023/01/20 03:29:00;;;;;;;;;;;;;;;;;;;;;
2023/01/20 03:31:36;;;;;;;6.75;4.68;;;;;;;1.65;72.96;99097.00;4973625;28;20194;-90
2023/01/20 03:34:20;;;;;;;7.93;5.25;;;;;;;1.61;72.75;99106.59;4964053;28;20198;-90
2023/01/20 03:37:03;;;;;;;;;;;;;;;;;;;;;
2023/01/20 03:39:32;;;;;;;6.10;3.85;;;;;;;1.63;72.80;99107.41;4970111;28;20273;-89
2023/01/20 03:42:12;;;;;;;7.15;3.47;;;;;;;1.67;72.84;99101.19;4958183;28;20196;-90
2023/01/20 03:45:05;;;;;;;8.32;4.53;;;;;;;1.70;73.00;99108.88;4968703;28;20207;-91
2023/01/20 03:48:12;;;;;;;4.75;3.20;;;;;;;1.74;72.51;99115.63;4968747;28;20575;-89
2023/01/20 03:50:49;;;;;;;6.03;4.32;;;;;;;1.75;72.70;99119.06;4976694;28;20195;-89
2023/01/20 03:53:29;;;;;;;4.22;3.80;;;;;;;1.77;72.43;99117.25;4968420;28;20187;-90
2023/01/20 03:56:32;;;;;;;6.07;4.93;;;;;;;1.80;72.49;99114.56;4949701;28;20204;-88
2023/01/20 03:59:02;;;;;;;5.60;3.60;;;;;;;1.77;72.44;99122.44;4965326;28;20203;-90
2023/01/20 04:01:50;;;;;;;;;;;;;;;;;;;;;
2023/01/20 04:04:19;;;;;;;8.68;4.85;;;;;;;1.80;72.48;99126.66;4942156;28;21001;-89
2023/01/20 04:06:54;;;;;;;5.93;4.18;;;;;;;1.85;72.83;99129.94;4962386;28;20211;-90
2023/01/20 04:09:30;;;;;;;3.63;3.20;;;;;;;1.88;72.50;99135.00;4961317;28;20702;-89
2023/01/20 04:12:05;;;;;;;6.07;3.00;;;;;;;1.88;72.47;99141.03;4960793;28;20331;-89
2023/01/20 04:14:44;;;;;;;5.05;3.70;;;;;;;1.87;72.55;99147.13;4961254;28;20512;-89
2023/01/20 04:17:25;;;;;;;4.28;3.88;;;;;;;1.86;72.15;99147.16;4961657;28;20961;-90
2023/01/20 04:19:55;;;;;;;6.88;4.30;;;;;;;1.85;72.57;99150.66;4965092;28;20249;-89
2023/01/20 04:22:33;;;;;;;6.63;4.00;;;;;;;1.83;72.17;99150.69;4944636;28;20199;-90
2023/01/20 04:25:05;;;;;;;5.30;3.30;;;;;;;1.81;72.41;99156.81;4960371;28;20198;-90
2023/01/20 04:27:38;;;;;;;6.38;4.13;;;;;;;1.81;72.51;99159.41;4944143;28;20232;-88
2023/01/20 04:30:14;;;;;;;6.07;5.13;;;;;;;1.77;72.44;99161.28;4971862;28;20203;-89
2023/01/20 04:32:51;;;;;;;6.27;5.40;;;;;;;1.74;72.30;99164.81;4965057;28;21348;-89
2023/01/20 04:35:26;;;;;;;8.10;6.60;;;;;;;1.75;73.36;99176.00;4960189;28;20437;-89
2023/01/20 04:38:02;;;;;;;6.72;4.95;;;;;;;1.74;73.13;99175.16;4945818;28;20202;-88
2023/01/20 04:40:27;;;;;;;7.30;3.97;;;;;;;1.73;72.99;99177.84;4961587;28;20442;-89
2023/01/20 04:43:11;;;;;;;5.18;4.68;;;;;;;1.73;73.33;99189.03;4962016;28;20795;-89
2023/01/20 04:45:49;;;;;;;5.35;3.70;;;;;;;1.73;72.95;99185.59;4928925;28;20667;-89
2023/01/20 04:48:28;;;;;;;3.55;3.10;;;;;;;1.71;72.94;99185.63;4957103;28;20282;-89
2023/01/20 04:51:25;;;;;;;;;;;;;;;;;;;;;
2023/01/20 04:54:06;;;;;;;4.53;4.13;;;;;;;1.70;73.11;99178.78;4959069;28;20203;-89
2023/01/20 04:56:43;;;;;;;3.92;3.60;;;;;;;1.64;72.58;99185.91;4962562;28;20465;-91
2023/01/20 04:59:09;;;;;;;5.45;4.00;;;;;;;1.60;73.04;99203.28;4964664;28;20553;-89
2023/01/20 05:01:40;;;;;;;3.53;3.23;;;;;;;1.54;73.10;99199.16;4988266;28;20199;-89
2023/01/20 05:04:11;;;;;;;6.25;4.43;;;;;;;1.53;72.93;99202.63;4968828;28;20455;-90
2023/01/20 05:06:42;;;;;;;5.07;3.85;;;;;;;1.54;72.85;99211.25;4964579;28;20220;-90
2023/01/20 05:09:15;;;;;;;6.10;4.60;;;;;;;1.50;72.84;99214.84;4959416;28;20215;-91
2023/01/20 05:11:58;;;;;;;;;;;;;;;;;;;;;
2023/01/20 05:14:53;;;;;;;13.35;6.20;;;;;;;1.45;73.10;99227.91;4953635;28;20200;-89
2023/01/20 05:17:17;;;;;;;9.38;7.03;;;;;;;1.47;72.91;99228.72;4959432;28;20212;-89
2023/01/20 05:20:09;;;;;;;11.30;5.50;;;;;;;1.48;72.87;99234.72;4964929;28;20573;-89
2023/01/20 05:22:45;;;;;;;6.78;4.72;;;;;;;1.44;72.89;99246.94;4956594;28;20853;-89
2023/01/20 05:25:10;;;;;;;6.80;4.60;;;;;;;1.40;73.18;99247.91;4943355;28;20298;-89
2023/01/20 05:27:46;;;;;;;;;;;;;;;;;;;;;
2023/01/20 05:30:27;;;;;;;5.50;3.97;;;;;;;1.40;73.05;99250.50;4948594;28;20654;-89
2023/01/20 05:33:16;;;;;;;;;;;;;;;;;;;;;
2023/01/20 05:36:02;;;;;;;;;;;;;;;;;;;;;
2023/01/20 05:38:42;;;;;;;5.95;4.15;;;;;;;1.51;72.87;99266.56;4959017;28;20199;-90
2023/01/20 05:41:37;;;;;;;5.03;4.55;;;;;;;1.53;72.66;99276.84;4955254;28;20206;-90
2023/01/20 05:44:37;;;;;;;;;;;;;;;;;;;;;
2023/01/20 05:47:23;;;;;;;;;;;;;;;;;;;;;
2023/01/20 05:49:59;;;;;;;4.75;3.78;;;;;;;1.39;72.97;99286.81;4971194;28;20206;-91
2023/01/20 05:52:38;;;;;;;5.53;4.85;;;;;;;1.35;73.09;99287.78;4974233;28;20251;-90
2023/01/20 05:55:18;;;;;;;6.90;6.28;;;;;;;1.29;73.34;99299.16;4962310;28;20196;-91
2023/01/20 05:57:53;;;;;;;8.27;6.47;;;;;;;1.25;73.37;99301.00;4961235;28;20192;-90
2023/01/20 06:00:32;;;;;;;;;;;;;;;;;;;;;
2023/01/20 06:03:01;;;;;;;9.27;8.02;;;;;;;1.18;73.42;99304.66;4942084;29;20189;-90
2023/01/20 06:05:49;;;;;;;14.73;10.38;;;;;;;1.18;73.72;99306.41;4956900;28;20456;-90
2023/01/20 06:08:33;;;;;;;11.48;8.68;;;;;;;1.21;73.41;99314.06;4960283;28;20196;-89
2023/01/20 06:11:16;;;;;;;16.40;11.13;;;;;;;1.22;73.45;99311.47;4964950;28;20200;-89
2023/01/20 06:13:58;;;;;;;12.70;9.68;;;;;;;1.25;73.55;99324.28;4957123;28;20212;-89
2023/01/20 06:16:53;;;;;;;18.20;10.02;;;;;;;1.26;73.46;99319.97;4960530;28;20311;-92
2023/01/20 06:19:29;;;;;;;16.48;13.00;;;;;;;1.24;73.72;99316.56;4964354;28;20199;-91
2023/01/20 06:21:57;;;;;;;22.60;12.87;;;;;;;1.23;73.64;99320.06;4944242;28;20224;-91
2023/01/20 06:24:45;;;;;;;;;;;;;;;;;;;;;
2023/01/20 06:27:46;;;;;;;20.35;14.00;;;;;;;1.18;73.61;99327.09;4961000;28;20266;-90
2023/01/20 06:30:27;;;;;;;;;;;;;;;;;;;;;
2023/01/20 06:33:21;;;;;;;20.85;14.75;;;;;;;1.14;73.65;99339.28;4960586;28;20275;-89
2023/01/20 06:36:04;;;;;;;22.10;14.43;;;;;;;1.13;73.80;99336.75;4956689;28;20387;-91
2023/01/20 06:38:50;;;;;;;;;;;;;;;;;;;;;
2023/01/20 06:41:33;;;;;;;25.88;17.48;;;;;;;1.12;73.96;99350.56;4966962;28;20210;-90
2023/01/20 06:44:38;;;;;;;;;;;;;;;;;;;;;
2023/01/20 06:47:41;;;;;;;17.17;13.38;;;;;;;0.98;74.03;99350.97;4952708;28;20235;-90
2023/01/20 06:50:15;;;;;;;22.75;14.75;;;;;;;0.93;74.12;99365.78;4970155;28;20203;-90
2023/01/20 06:52:56;;;;;;;;;;;;;;;;;;;;;
2023/01/20 06:55:29;;;;;;;22.13;14.85;;;;;;;0.93;74.36;99373.53;4941748;28;20216;-90
2023/01/20 06:58:00;;;;;;;24.40;14.63;;;;;;;0.94;74.10;99378.66;4940593;29;20586;-90
2023/01/20 07:00:45;;;;;;;;;;;;;;;;;;;;;
2023/01/20 07:03:16;;;;;;;32.60;19.70;;;;;;;0.92;74.13;99380.44;4963907;28;20317;-89
2023/01/20 07:06:06;;;;;;;26.70;15.77;;;;;;;0.92;74.25;99395.09;4960228;28;20537;-91
2023/01/20 07:08:54;;;;;;;28.35;16.70;;;;;;;0.93;74.31;99392.47;4958547;28;20591;-90
2023/01/20 07:11:46;;;;;;;28.55;17.35;;;;;;;0.94;73.91;99399.34;4940988;28;20820;-88
2023/01/20 07:14:23;;;;;;;25.23;16.55;;;;;;;0.88;74.02;99404.69;4953144;28;20195;-91
2023/01/20 07:17:12;;;;;;;27.17;19.10;;;;;;;0.81;74.11;99409.19;4958277;28;20201;-91
2023/01/20 07:20:02;;;;;;;25.63;17.27;;;;;;;0.78;74.31;99411.84;4956486;28;20208;-92
2023/01/20 07:22:42;;;;;;;25.92;17.73;;;;;;;0.72;74.14;99411.16;4957540;28;20922;-90
2023/01/20 07:25:24;;;;;;;26.50;17.50;;;;;;;0.67;74.47;99421.63;4958872;28;21009;-90
2023/01/20 07:27:57;;;;;;;26.30;16.40;;;;;;;0.64;74.52;99427.72;4941794;28;20243;-91
2023/01/20 07:30:32;;;;;;;26.42;13.15;;;;;;;0.62;74.65;99429.50;4963352;28;20196;-91
2023/01/20 07:33:16;;;;;;;16.52;11.45;;;;;;;0.59;74.64;99429.56;4953565;28;20221;-91
2023/01/20 07:36:00;;;;;;;22.13;19.20;;;;;;;0.60;75.05;99444.19;4949799;28;20480;-91
2023/01/20 07:38:37;;;;;;;24.40;16.42;;;;;;;0.59;75.23;99446.81;4955914;28;20451;-91
2023/01/20 07:41:14;;;;;;;21.98;14.23;;;;;;;0.56;75.41;99447.72;4945070;28;20195;-91
2023/01/20 07:44:09;;;;;;;16.35;11.60;;;;;;;0.55;75.23;99453.81;4939545;28;20921;-91
2023/01/20 07:47:00;;;;;;;;;;;;;;;;;;;;;
2023/01/20 07:49:28;;;;;;;23.35;13.60;;;;;;;0.55;75.12;99461.56;4962113;28;20219;-91
2023/01/20 07:51:56;;;;;;;11.47;8.30;;;;;;;0.58;75.08;99466.66;4959179;28;20246;-90
2023/01/20 07:54:35;;;;;;;10.77;9.00;;;;;;;0.61;74.92;99457.97;4953408;28;20189;-90
2023/01/20 07:57:14;;;;;;;13.40;8.57;;;;;;;0.66;74.76;99464.72;4958046;28;20200;-93
2023/01/20 07:59:49;;;;;;;10.02;6.93;;;;;;;0.70;74.52;99473.22;4965216;28;20202;-91
2023/01/20 08:02:35;;;;;;;;;;;;;;;;;;;;;
2023/01/20 08:05:18;;;;;;;;;;;;;;;;;;;;;
2023/01/20 08:08:01;;;;;;;;;;;;;;;;;;;;;
2023/01/20 08:10:49;;;;;;;5.78;5.18;;;;;;;0.90;73.80;99490.84;4964463;28;20274;-92
2023/01/20 08:13:19;;;;;;;13.35;6.53;;;;;;;0.94;73.45;99492.44;4959409;28;20208;-91
2023/01/20 08:15:57;;;;;;;8.95;6.18;;;;;;;0.98;73.35;99499.25;4940802;28;20666;-91
2023/01/20 08:18:34;;;;;;;12.18;9.02;;;;;;;1.03;73.05;99493.94;4958832;28;20279;-91
2023/01/20 08:21:05;;;;;;;16.45;12.50;;;;;;;1.05;73.19;99500.78;4961377;28;20702;-92
2023/01/20 08:23:47;;;;;;;13.60;10.30;;;;;;;1.08;72.66;99502.41;4946360;28;20738;-92
2023/01/20 08:26:18;;;;;;;7.25;5.75;;;;;;;1.07;72.49;99506.75;4935354;28;20204;-92
2023/01/20 08:28:51;;;;;;;7.50;5.30;;;;;;;1.09;72.46;99519.66;4963566;28;20352;-91
2023/01/20 08:31:25;;;;;;;7.55;5.07;;;;;;;1.10;72.26;99511.81;4959675;28;20752;-93
2023/01/20 08:34:11;;;;;;;;;;;;;;;;;;;;;
2023/01/20 08:36:47;;;;;;;5.55;4.18;;;;;;;1.18;71.89;99521.97;4958154;28;20623;-90
2023/01/20 08:39:24;;;;;;;4.95;4.43;;;;;;;1.24;71.44;99528.72;4944488;28;20199;-92
2023/01/20 08:41:57;;;;;;;6.65;4.50;;;;;;;1.33;71.41;99520.72;4945511;28;20190;-92
2023/01/20 08:44:26;;;;;;;5.60;4.90;;;;;;;1.39;70.95;99525.72;4961508;28;20805;-91
2023/01/20 08:47:15;;;;;;;10.05;5.80;;;;;;;1.46;70.89;99526.38;4961050;28;20721;-92
2023/01/20 08:50:05;;;;;;;7.32;5.32;;;;;;;1.54;70.48;99530.50;4963361;28;20204;-92
2023/01/20 08:52:53;;;;;;;7.90;5.80;;;;;;;1.63;69.68;99533.72;4961612;28;20569;-90
